Time;durP1;ratioP1;P1;durP2;ratioP2;P2;SDS_P1;SDS_P2;PMS_P1;PMS_P2;Temp;Humidity;BMP_temperature;BMP_pressure;BME280_temperature;BME280_humidity;BME280_pressure;Samples;Min_cycle;Max_cycle;Signal;HPM_P1;HPM_P2
2022/04/18 00:00:17;;;;;;;10.57;7.87;;;5.40;99.90;;;;;;5056833;28;20158;-66
2022/04/18 00:02:42;;;;;;;11.00;7.40;;;5.30;99.90;;;;;;5041711;28;20187;-67
2022/04/18 00:05:09;;;;;;;9.27;7.10;;;5.40;99.90;;;;;;5055336;28;20202;-67
2022/04/18 00:07:34;;;;;;;11.43;7.97;;;5.30;99.90;;;;;;5055458;28;20172;-67
2022/04/18 00:10:00;;;;;;;10.77;8.23;;;5.30;99.90;;;;;;5055377;28;20251;-69
2022/04/18 00:12:26;;;;;;;12.17;9.13;;;5.20;99.90;;;;;;5055724;28;20173;-68
2022/04/18 00:14:51;;;;;;;16.23;11.00;;;5.20;99.90;;;;;;5055907;28;20558;-69
2022/04/18 00:17:17;;;;;;;16.40;11.30;;;5.10;99.90;;;;;;5055311;28;20169;-66
2022/04/18 00:19:43;;;;;;;17.97;11.67;;;5.20;99.90;;;;;;5037923;28;20168;-70
2022/04/18 00:22:09;;;;;;;14.93;10.20;;;5.20;99.90;;;;;;5055447;28;20167;-69
2022/04/18 00:24:34;;;;;;;15.33;10.10;;;5.10;99.90;;;;;;5055279;28;20586;-68
2022/04/18 00:27:04;;;;;;;15.17;9.93;;;5.30;99.90;;;;;;5055293;28;20593;-67
2022/04/18 00:29:30;;;;;;;21.87;10.80;;;5.20;99.90;;;;;;5055074;28;20182;-67
2022/04/18 00:31:55;;;;;;;17.37;10.90;;;5.10;99.90;;;;;;5055120;28;20257;-66
2022/04/18 00:34:22;;;;;;;16.03;10.53;;;4.90;99.90;;;;;;5055780;28;20199;-68
2022/04/18 00:36:47;;;;;;;14.63;9.87;;;5.00;99.90;;;;;;5056042;28;20191;-68
2022/04/18 00:39:13;;;;;;;18.87;10.03;;;5.00;99.90;;;;;;5067832;28;20230;-67
2022/04/18 00:41:38;;;;;;;15.10;10.40;;;5.00;99.90;;;;;;5074728;28;20164;-68
2022/04/18 00:44:04;;;;;;;19.03;9.63;;;5.10;99.90;;;;;;5074725;28;20220;-67
2022/04/18 00:46:30;;;;;;;15.63;9.30;;;5.10;99.90;;;;;;5075075;28;20203;-67
2022/04/18 00:48:55;;;;;;;12.53;8.73;;;5.10;99.90;;;;;;5074121;28;20599;-68
2022/04/18 00:51:24;;;;;;;13.60;9.10;;;5.00;99.90;;;;;;5074728;28;20170;-68
2022/04/18 00:53:53;;;;;;;11.33;8.50;;;5.00;99.90;;;;;;5074142;28;20181;-68
2022/04/18 00:56:20;;;;;;;12.80;8.40;;;5.00;99.90;;;;;;5074977;28;20195;-68
2022/04/18 00:58:47;;;;;;;11.23;7.90;;;4.90;99.90;;;;;;5075252;28;20156;-66
2022/04/18 01:01:13;;;;;;;10.23;7.13;;;4.80;99.90;;;;;;5076437;28;20270;-68
2022/04/18 01:03:39;;;;;;;12.73;8.37;;;4.80;99.90;;;;;;5075087;28;20156;-67
2022/04/18 01:06:05;;;;;;;16.20;9.43;;;4.80;99.90;;;;;;5074838;28;20647;-69
2022/04/18 01:08:34;;;;;;;14.03;9.83;;;4.80;99.90;;;;;;5075413;28;20289;-67
2022/04/18 01:11:00;;;;;;;14.03;9.60;;;4.70;99.90;;;;;;5073811;28;20282;-67
2022/04/18 01:13:27;;;;;;;13.13;9.10;;;4.60;99.90;;;;;;5074678;28;20160;-68
2022/04/18 01:15:54;;;;;;;14.33;8.87;;;4.70;99.90;;;;;;5074566;28;20166;-67
2022/04/18 01:18:20;;;;;;;13.27;8.33;;;4.70;99.90;;;;;;5074494;28;20217;-68
2022/04/18 01:20:46;;;;;;;12.93;8.97;;;4.60;99.90;;;;;;5074871;28;20173;-67
2022/04/18 01:23:12;;;;;;;13.97;8.10;;;4.70;99.90;;;;;;5075515;28;20509;-67
2022/04/18 01:31:06;;;;;;;12.60;8.87;;;4.60;99.90;;;;;;5073957;28;20155;-67
2022/04/18 01:33:31;;;;;;;12.27;8.80;;;4.60;99.90;;;;;;5073812;28;20163;-67
2022/04/18 01:35:57;;;;;;;13.83;8.63;;;4.60;99.90;;;;;;5073814;28;20177;-68
2022/04/18 01:38:23;;;;;;;9.50;8.00;;;4.60;99.90;;;;;;5063467;28;20694;-69
2022/04/18 01:40:49;;;;;;;12.67;8.57;;;4.60;99.90;;;;;;5053369;28;20167;-67
2022/04/18 01:43:14;;;;;;;15.40;10.27;;;4.50;99.90;;;;;;5053666;28;20166;-67
2022/04/18 01:45:40;;;;;;;13.90;9.63;;;4.50;99.90;;;;;;5053940;28;20196;-68
2022/04/18 01:48:06;;;;;;;12.33;8.57;;;4.50;99.90;;;;;;5054076;28;20559;-67
2022/04/18 01:50:32;;;;;;;9.77;7.23;;;4.40;99.90;;;;;;5053559;28;20165;-67
2022/04/18 01:52:57;;;;;;;11.10;7.70;;;4.20;99.90;;;;;;5053543;28;20173;-67
2022/04/18 01:55:23;;;;;;;13.27;8.33;;;4.20;99.90;;;;;;5053212;28;20259;-68
2022/04/18 01:57:48;;;;;;;11.80;7.20;;;4.20;99.90;;;;;;5053304;28;20160;-68
2022/04/18 02:00:14;;;;;;;10.77;7.00;;;4.20;99.90;;;;;;5053854;28;20283;-68
2022/04/18 02:02:40;;;;;;;10.13;7.47;;;4.20;99.90;;;;;;5053676;28;20217;-67
2022/04/18 02:05:09;;;;;;;11.57;7.43;;;4.20;99.90;;;;;;5053352;28;20201;-67
2022/04/18 02:07:35;;;;;;;12.73;7.73;;;4.20;99.90;;;;;;5053651;28;20243;-67
2022/04/18 02:10:02;;;;;;;10.50;7.17;;;4.20;99.90;;;;;;5053561;28;20165;-68
2022/04/18 02:12:28;;;;;;;9.57;7.40;;;4.20;99.90;;;;;;5035805;28;20177;-68
2022/04/18 02:14:54;;;;;;;13.93;7.80;;;4.30;99.90;;;;;;5053859;28;20226;-68
2022/04/18 02:17:19;;;;;;;10.30;7.50;;;4.20;99.90;;;;;;5053194;28;20167;-68
2022/04/18 02:19:46;;;;;;;9.60;7.27;;;4.20;99.90;;;;;;5053650;28;20663;-68
2022/04/18 02:22:15;;;;;;;10.77;7.00;;;4.30;99.90;;;;;;5055959;28;20250;-68
2022/04/18 02:24:41;;;;;;;8.70;7.43;;;4.20;99.90;;;;;;5057506;28;20156;-69
2022/04/18 02:27:06;;;;;;;10.03;7.93;;;4.20;99.90;;;;;;5054920;28;20510;-68
2022/04/18 02:29:33;;;;;;;9.50;7.50;;;4.30;99.90;;;;;;5057816;28;20177;-68
2022/04/18 02:34:43;;;;;;;9.27;7.20;;;4.10;99.90;;;;;;5057350;28;20244;-68
2022/04/18 02:37:09;;;;;;;10.33;6.77;;;4.10;99.90;;;;;;5057374;28;20402;-67
2022/04/18 02:39:34;;;;;;;9.57;6.60;;;4.00;99.90;;;;;;5058817;28;20618;-68
2022/04/18 02:42:00;;;;;;;10.43;7.33;;;3.90;99.90;;;;;;5058266;28;20610;-68
2022/04/18 02:44:26;;;;;;;9.63;6.83;;;3.90;99.90;;;;;;5057808;28;20170;-68
2022/04/18 02:46:51;;;;;;;10.33;7.67;;;3.90;99.90;;;;;;5057227;28;20239;-68
2022/04/18 02:49:17;;;;;;;9.83;7.20;;;3.90;99.90;;;;;;5056831;28;20174;-68
2022/04/18 02:51:42;;;;;;;10.33;7.17;;;3.90;99.90;;;;;;5057948;28;20249;-68
2022/04/18 02:54:08;;;;;;;11.27;7.57;;;3.90;99.90;;;;;;5058246;28;20182;-68
2022/04/18 02:56:34;;;;;;;9.00;6.70;;;4.00;99.90;;;;;;5056995;28;20186;-67
2022/04/18 02:58:59;;;;;;;8.80;7.20;;;3.90;99.90;;;;;;5056639;28;20197;-66
2022/04/18 03:01:25;;;;;;;11.13;7.33;;;3.90;99.90;;;;;;5057144;28;20636;-69
2022/04/18 03:03:51;;;;;;;8.20;6.63;;;3.90;99.90;;;;;;5057421;28;20648;-67
2022/04/18 03:06:16;;;;;;;10.07;6.73;;;3.80;99.90;;;;;;5056774;28;20284;-67
2022/04/18 03:08:42;;;;;;;10.27;6.80;;;3.70;99.90;;;;;;5057073;28;20177;-67
2022/04/18 03:11:08;;;;;;;10.50;6.77;;;3.60;99.90;;;;;;5056830;28;20243;-68
2022/04/18 03:13:43;;;;;;;9.43;7.00;;;3.70;99.90;;;;;;5056574;28;20158;-67
2022/04/18 03:16:10;;;;;;;8.47;6.87;;;3.80;99.90;;;;;;5056472;28;20172;-68
2022/04/18 03:18:36;;;;;;;8.93;6.93;;;3.70;99.90;;;;;;5056236;28;20183;-68
2022/04/18 03:21:03;;;;;;;10.90;6.93;;;3.60;99.90;;;;;;5062065;28;20164;-67
2022/04/18 03:23:29;;;;;;;9.80;6.57;;;3.70;99.90;;;;;;5062903;28;20157;-69
2022/04/18 03:25:54;;;;;;;9.07;6.60;;;3.60;99.90;;;;;;5066686;28;20590;-68
2022/04/18 03:28:20;;;;;;;10.00;6.93;;;3.50;99.90;;;;;;5056975;28;20624;-67
2022/04/18 03:30:46;;;;;;;10.67;7.80;;;3.40;99.90;;;;;;5056463;28;20251;-68
2022/04/18 03:33:12;;;;;;;11.50;7.37;;;3.40;99.90;;;;;;5056889;28;20302;-68
2022/04/18 03:35:37;;;;;;;12.17;7.77;;;3.40;99.90;;;;;;5056427;28;20168;-69
2022/04/18 03:40:47;;;;;;;9.47;7.40;;;3.30;99.90;;;;;;5055826;28;20215;-68
2022/04/18 03:43:12;;;;;;;12.90;7.60;;;3.40;99.90;;;;;;5056631;28;20177;-68
2022/04/18 03:45:38;;;;;;;10.00;7.17;;;3.40;99.90;;;;;;5055575;28;20209;-66
2022/04/18 03:48:04;;;;;;;12.00;7.67;;;3.40;99.90;;;;;;5056513;28;20171;-67
2022/04/18 03:50:30;;;;;;;10.70;7.57;;;3.40;99.90;;;;;;5055830;28;20565;-67
2022/04/18 03:52:55;;;;;;;11.90;8.30;;;3.40;99.90;;;;;;5056454;28;20168;-67
2022/04/18 03:55:21;;;;;;;11.23;7.47;;;3.50;99.90;;;;;;5055975;28;20266;-67
2022/04/18 03:57:46;;;;;;;12.87;7.43;;;3.40;99.90;;;;;;5055764;28;20226;-66
2022/04/18 04:00:13;;;;;;;13.07;8.20;;;3.30;99.90;;;;;;5055713;28;20231;-67
2022/04/18 04:02:39;;;;;;;9.37;6.90;;;3.40;99.90;;;;;;5055928;28;20596;-68
2022/04/18 04:05:05;;;;;;;9.03;7.80;;;3.40;99.90;;;;;;5055740;28;20203;-68
2022/04/18 04:07:30;;;;;;;11.33;8.00;;;3.50;99.90;;;;;;5055844;28;20176;-66
2022/04/18 04:09:56;;;;;;;9.30;7.97;;;3.50;99.90;;;;;;5055757;28;20197;-67
2022/04/18 04:12:22;;;;;;;10.30;7.47;;;3.50;99.90;;;;;;5056618;28;20165;-68
2022/04/18 04:14:51;;;;;;;10.37;7.93;;;3.50;99.90;;;;;;5056199;28;20172;-68
2022/04/18 04:17:17;;;;;;;10.23;7.63;;;3.50;99.90;;;;;;5041122;28;20180;-67
2022/04/18 04:19:44;;;;;;;13.70;8.63;;;3.40;99.90;;;;;;5056244;28;20245;-68
2022/04/18 04:22:10;;;;;;;9.47;7.23;;;3.30;99.90;;;;;;5064087;28;20164;-68
2022/04/18 04:24:35;;;;;;;13.20;7.83;;;3.20;99.90;;;;;;5055992;28;20165;-68
2022/04/18 04:27:01;;;;;;;11.63;8.07;;;3.20;99.90;;;;;;5055092;28;20192;-66
2022/04/18 04:29:27;;;;;;;12.10;8.37;;;3.20;99.90;;;;;;5054962;28;20596;-67
2022/04/18 04:31:52;;;;;;;10.13;8.30;;;3.10;99.90;;;;;;5055440;28;20168;-68
2022/04/18 04:34:18;;;;;;;15.13;8.53;;;3.10;99.90;;;;;;5055310;28;20160;-67
2022/04/18 04:36:43;;;;;;;13.23;8.47;;;3.20;99.90;;;;;;5055217;28;20258;-69
2022/04/18 04:39:09;;;;;;;13.07;8.70;;;3.30;99.90;;;;;;5054630;28;20236;-67
2022/04/18 04:41:36;;;;;;;14.27;8.23;;;3.30;99.90;;;;;;5037351;28;20272;-68
2022/04/18 04:44:03;;;;;;;14.73;8.97;;;3.30;99.90;;;;;;5051878;28;20181;-68
2022/04/18 04:46:28;;;;;;;12.30;7.90;;;3.30;99.90;;;;;;5055016;28;20201;-68
2022/04/18 04:48:54;;;;;;;13.13;8.67;;;3.30;99.90;;;;;;5068846;28;20500;-68
2022/04/18 04:51:21;;;;;;;14.00;9.57;;;3.40;99.90;;;;;;5066750;28;20192;-68
2022/04/18 04:53:47;;;;;;;12.57;8.40;;;3.50;99.90;;;;;;5054744;28;20537;-69
2022/04/18 04:56:13;;;;;;;11.50;8.50;;;3.50;99.90;;;;;;5054209;28;20218;-70
2022/04/18 04:58:38;;;;;;;13.20;8.93;;;3.50;99.90;;;;;;5055225;28;20165;-68
2022/04/18 05:01:04;;;;;;;13.30;9.13;;;3.40;99.90;;;;;;5037006;28;20173;-67
2022/04/18 05:03:30;;;;;;;15.33;9.17;;;3.30;99.90;;;;;;5054575;28;20427;-66
2022/04/18 05:05:56;;;;;;;11.97;8.80;;;3.50;99.90;;;;;;5055976;28;20199;-67
2022/04/18 05:08:21;;;;;;;13.00;9.20;;;3.50;99.90;;;;;;5069839;28;20280;-70
2022/04/18 05:10:47;;;;;;;12.27;8.93;;;3.50;99.90;;;;;;5068394;28;20184;-68
2022/04/18 05:13:13;;;;;;;10.17;8.40;;;3.60;99.90;;;;;;5068744;28;20614;-67
2022/04/18 05:15:39;;;;;;;11.70;8.77;;;3.70;99.90;;;;;;5068588;28;20164;-68
2022/04/18 05:18:05;;;;;;;13.17;9.03;;;3.80;99.90;;;;;;5067010;28;20172;-68
2022/04/18 05:20:31;;;;;;;11.13;8.63;;;4.00;99.90;;;;;;5066907;28;20164;-67
2022/04/18 05:22:57;;;;;;;12.37;8.27;;;4.70;99.90;;;;;;5058565;28;20185;-68
2022/04/18 05:25:24;;;;;;;13.33;8.60;;;4.50;99.90;;;;;;5055793;28;20613;-68
2022/04/18 05:27:50;;;;;;;11.47;8.10;;;4.40;99.90;;;;;;5055313;28;20170;-68
2022/04/18 05:30:15;;;;;;;13.00;8.87;;;4.30;99.90;;;;;;5037055;28;20493;-68
2022/04/18 05:32:43;;;;;;;10.60;6.80;;;4.40;99.90;;;;;;5054475;28;20174;-68
2022/04/18 05:35:09;;;;;;;11.63;7.97;;;4.50;99.90;;;;;;5053922;28;20189;-67
2022/04/18 05:37:35;;;;;;;10.77;8.03;;;4.50;99.90;;;;;;5054246;28;20231;-67
2022/04/18 05:40:00;;;;;;;12.10;8.50;;;4.60;99.90;;;;;;5053771;28;20201;-68
2022/04/18 05:42:26;;;;;;;10.43;7.77;;;4.50;99.90;;;;;;5055336;28;20192;-66
2022/04/18 05:44:52;;;;;;;12.77;8.50;;;4.60;99.90;;;;;;5054221;28;20161;-68
2022/04/18 05:47:17;;;;;;;13.93;8.57;;;4.70;99.90;;;;;;5053930;28;20194;-66
2022/04/18 05:49:43;;;;;;;13.77;7.67;;;4.80;99.90;;;;;;5053514;28;20293;-68
2022/04/18 05:52:08;;;;;;;13.97;8.63;;;4.80;99.90;;;;;;5053103;28;20488;-67
2022/04/18 05:54:34;;;;;;;15.53;9.07;;;4.90;99.90;;;;;;5053233;28;20164;-69
2022/04/18 05:57:02;;;;;;;11.83;8.77;;;4.90;99.90;;;;;;5053785;28;20177;-68
2022/04/18 05:59:28;;;;;;;10.97;7.80;;;4.90;99.90;;;;;;5053743;28;20159;-67
2022/04/18 06:01:54;;;;;;;9.30;7.50;;;5.00;99.90;;;;;;5053404;28;20161;-67
2022/04/18 06:04:19;;;;;;;11.13;7.77;;;5.30;99.90;;;;;;5036562;28;20205;-67
2022/04/18 06:06:45;;;;;;;13.93;6.70;;;5.40;99.90;;;;;;5036357;28;20219;-66
2022/04/18 06:09:11;;;;;;;12.73;7.87;;;5.40;99.90;;;;;;5037110;28;20212;-67
2022/04/18 06:11:36;;;;;;;9.80;7.70;;;5.60;99.90;;;;;;5054312;28;20165;-69
2022/04/18 06:14:02;;;;;;;10.63;7.43;;;5.80;99.90;;;;;;5054135;28;20171;-69
2022/04/18 06:16:28;;;;;;;10.00;7.53;;;5.90;99.90;;;;;;5054681;28;20165;-67
2022/04/18 06:18:54;;;;;;;9.43;6.87;;;6.10;99.90;;;;;;5055852;28;20181;-67
2022/04/18 06:21:19;;;;;;;8.77;6.97;;;6.20;99.90;;;;;;5055367;28;20160;-66
2022/04/18 06:23:45;;;;;;;12.80;8.27;;;6.30;99.90;;;;;;5054832;28;20160;-69
2022/04/18 06:26:10;;;;;;;6.90;5.57;;;6.40;99.90;;;;;;5035872;28;20227;-67
2022/04/18 06:28:36;;;;;;;10.20;6.27;;;6.60;99.90;;;;;;5054025;28;20192;-67
2022/04/18 06:31:02;;;;;;;8.87;6.37;;;6.60;99.90;;;;;;5053315;28;20161;-68
2022/04/18 06:33:29;;;;;;;9.80;6.93;;;6.70;99.90;;;;;;5052838;28;20241;-68
2022/04/18 06:35:55;;;;;;;10.33;7.10;;;6.90;99.90;;;;;;5053546;28;20164;-68
2022/04/18 06:38:21;;;;;;;7.83;4.93;;;7.00;99.90;;;;;;5053711;28;20622;-68
2022/04/18 06:40:46;;;;;;;9.57;6.33;;;7.00;99.90;;;;;;5053772;28;20628;-68
2022/04/18 06:43:16;;;;;;;9.07;6.83;;;7.10;99.90;;;;;;5052760;28;20191;-67
2022/04/18 06:45:41;;;;;;;9.77;6.93;;;7.00;99.90;;;;;;5053157;28;20233;-68
2022/04/18 06:48:07;;;;;;;8.23;6.23;;;7.20;99.90;;;;;;5053474;28;20170;-69
2022/04/18 06:50:32;;;;;;;7.57;5.47;;;7.40;99.90;;;;;;5055030;28;20500;-68
2022/04/18 06:52:58;;;;;;;8.07;6.07;;;7.60;99.90;;;;;;5054171;28;20219;-69
2022/04/18 06:55:24;;;;;;;7.30;5.33;;;7.70;99.90;;;;;;5055639;28;20167;-69
2022/04/18 06:57:50;;;;;;;8.60;5.40;;;7.80;99.90;;;;;;5038450;28;20191;-69
2022/04/18 07:00:16;;;;;;;10.67;6.87;;;7.80;99.90;;;;;;5055526;28;20173;-69
2022/04/18 07:02:45;;;;;;;7.77;5.50;;;7.80;99.90;;;;;;5055861;28;20180;-67
2022/04/18 07:05:11;;;;;;;7.47;5.73;;;7.90;99.90;;;;;;5061915;28;20214;-68
2022/04/18 07:07:37;;;;;;;10.97;5.70;;;8.00;99.90;;;;;;5079337;28;20181;-70
2022/04/18 07:10:04;;;;;;;8.90;5.40;;;8.20;99.90;;;;;;5078892;28;20497;-68
2022/04/18 07:12:29;;;;;;;8.10;5.33;;;8.10;99.90;;;;;;5075992;28;20177;-67
2022/04/18 07:14:58;;;;;;;9.13;6.10;;;8.20;99.90;;;;;;5081220;28;20232;-68
2022/04/18 07:17:24;;;;;;;8.13;5.90;;;8.40;99.90;;;;;;5085708;28;20152;-70
2022/04/18 07:19:50;;;;;;;6.10;5.07;;;8.40;99.90;;;;;;5082215;28;20213;-67
2022/04/18 07:22:16;;;;;;;6.07;4.53;;;8.60;99.90;;;;;;5077382;28;20155;-67
2022/04/18 07:24:41;;;;;;;6.93;4.77;;;8.70;99.90;;;;;;5076592;28;20166;-67
2022/04/18 07:27:07;;;;;;;5.67;4.47;;;8.90;99.90;;;;;;5076665;28;20189;-69
2022/04/18 07:29:33;;;;;;;7.57;4.57;;;9.00;99.90;;;;;;5058685;28;20592;-68
2022/04/18 07:31:58;;;;;;;9.17;5.03;;;9.10;99.90;;;;;;5076418;28;20175;-69
2022/04/18 07:34:24;;;;;;;7.67;5.00;;;9.10;99.90;;;;;;5058684;28;20264;-67
2022/04/18 07:36:49;;;;;;;11.20;5.73;;;9.10;99.90;;;;;;5076357;28;20187;-67
2022/04/18 07:39:15;;;;;;;5.60;4.43;;;9.30;99.90;;;;;;5076210;28;20681;-69
2022/04/18 07:41:40;;;;;;;6.97;5.07;;;9.40;99.90;;;;;;5076090;28;20188;-69
2022/04/18 07:44:06;;;;;;;10.97;5.10;;;9.60;99.90;;;;;;5075663;28;20607;-69
2022/04/18 07:46:32;;;;;;;6.80;4.97;;;9.50;99.90;;;;;;5075599;28;20193;-68
2022/04/18 07:48:59;;;;;;;6.63;5.20;;;9.70;99.90;;;;;;5075968;28;20156;-67
2022/04/18 07:51:42;;;;;;;7.73;5.37;;;9.80;99.90;;;;;;5076042;28;20171;-67
2022/04/18 07:54:09;;;;;;;6.47;4.57;;;10.00;99.90;;;;;;5075622;28;20167;-69
2022/04/18 07:56:35;;;;;;;6.97;5.30;;;10.10;99.90;;;;;;5075504;28;20211;-69
2022/04/18 07:59:01;;;;;;;8.63;5.53;;;10.10;99.90;;;;;;5075661;28;20188;-69
2022/04/18 08:01:27;;;;;;;8.57;5.30;;;10.00;99.90;;;;;;5075647;28;20160;-68
2022/04/18 08:03:54;;;;;;;9.73;6.10;;;10.20;99.90;;;;;;5075512;28;20170;-69
2022/04/18 08:06:20;;;;;;;7.03;5.50;;;10.10;99.90;;;;;;5077431;28;20217;-69
2022/04/18 08:08:46;;;;;;;7.90;5.10;;;10.30;99.90;;;;;;5061378;28;20194;-68
2022/04/18 08:11:14;;;;;;;6.33;4.87;;;10.60;99.90;;;;;;5079337;28;20451;-68
2022/04/18 08:13:41;;;;;;;7.03;5.23;;;10.70;99.90;;;;;;5063626;28;20274;-70
2022/04/18 08:16:07;;;;;;;7.77;5.20;;;10.80;99.90;;;;;;5082723;28;20160;-72
2022/04/18 08:18:36;;;;;;;8.07;5.27;;;11.00;99.90;;;;;;5075287;28;20611;-68
2022/04/18 08:21:03;;;;;;;9.10;5.90;;;11.10;99.90;;;;;;5075620;28;20175;-66
2022/04/18 08:23:30;;;;;;;7.60;5.23;;;10.90;99.90;;;;;;5075524;28;20156;-68
2022/04/18 08:25:55;;;;;;;7.97;5.20;;;11.00;99.90;;;;;;5074538;28;20573;-67
2022/04/18 08:28:21;;;;;;;7.53;4.97;;;11.20;99.90;;;;;;5075777;28;20258;-68
2022/04/18 08:30:46;;;;;;;8.50;4.97;;;11.40;99.90;;;;;;5060444;28;20522;-67
2022/04/18 08:33:12;;;;;;;6.77;5.13;;;11.60;98.60;;;;;;5081271;28;20235;-68
2022/04/18 08:35:37;;;;;;;6.73;5.57;;;11.80;98.30;;;;;;5057705;28;20182;-68
2022/04/18 08:38:03;;;;;;;7.60;5.27;;;11.90;97.20;;;;;;5068857;28;20250;-66
2022/04/18 08:40:29;;;;;;;8.70;4.70;;;12.00;96.80;;;;;;5095076;28;20159;-68
2022/04/18 08:42:56;;;;;;;5.73;4.10;;;12.20;94.40;;;;;;5094932;28;20159;-68
2022/04/18 08:45:24;;;;;;;5.40;3.80;;;12.30;93.60;;;;;;5095188;28;20630;-68
2022/04/18 08:53:25;;;;;;;5.77;3.77;;;12.10;90.70;;;;;;5094927;28;20238;-67
2022/04/18 08:55:51;;;;;;;5.33;3.60;;;12.00;90.60;;;;;;5095404;28;20155;-67
2022/04/18 08:58:16;;;;;;;8.80;4.17;;;12.20;90.00;;;;;;5093859;28;20181;-67
2022/04/18 09:00:42;;;;;;;6.73;4.07;;;12.40;87.60;;;;;;5094458;28;20595;-69
2022/04/18 09:03:07;;;;;;;6.37;3.87;;;12.40;87.60;;;;;;5094807;28;20597;-67
2022/04/18 09:05:37;;;;;;;7.13;4.17;;;12.00;87.10;;;;;;5095390;28;20209;-69
2022/04/18 09:08:05;;;;;;;6.63;3.97;;;12.00;89.30;;;;;;5095155;28;20170;-68
2022/04/18 09:10:31;;;;;;;6.67;3.70;;;12.10;88.70;;;;;;5094368;28;20182;-68
2022/04/18 09:13:12;;;;;;;4.87;3.07;;;12.30;87.80;;;;;;5094615;28;20156;-68
2022/04/18 09:15:40;;;;;;;4.87;3.33;;;12.40;86.60;;;;;;5093973;28;20199;-68
2022/04/18 09:18:08;;;;;;;3.30;2.80;;;12.60;85.90;;;;;;5095082;28;20163;-68
2022/04/18 09:20:44;;;;;;;3.67;2.70;;;12.80;83.10;;;;;;5094864;28;20162;-67
2022/04/18 09:23:27;;;;;;;3.33;2.77;;;13.20;80.70;;;;;;5094586;28;20645;-67
2022/04/18 09:25:54;;;;;;;3.83;2.97;;;13.20;79.80;;;;;;5094055;28;20295;-67
2022/04/18 09:28:24;;;;;;;3.57;2.90;;;13.50;78.30;;;;;;5094418;28;20188;-66
2022/04/18 09:31:03;;;;;;;6.17;3.53;;;13.60;77.60;;;;;;5094546;28;20179;-68
2022/04/18 09:33:32;;;;;;;3.60;3.07;;;13.60;77.60;;;;;;5094772;28;20155;-68
2022/04/18 09:36:12;;;;;;;3.90;3.20;;;13.50;77.10;;;;;;5094541;28;20239;-68
2022/04/18 09:38:42;;;;;;;5.17;3.40;;;13.30;78.70;;;;;;5084630;28;20334;-68
2022/04/18 09:41:12;;;;;;;4.23;3.50;;;13.80;79.90;;;;;;5073948;28;20253;-68
2022/04/18 09:43:39;;;;;;;4.70;3.63;;;13.50;81.30;;;;;;5074373;28;20160;-67
2022/04/18 09:46:07;;;;;;;4.37;3.50;;;13.30;81.00;;;;;;5074366;28;20230;-68
2022/04/18 09:48:33;;;;;;;4.70;3.47;;;13.40;81.20;;;;;;5074502;28;20571;-67
2022/04/18 09:50:59;;;;;;;5.70;3.67;;;13.30;81.40;;;;;;5074424;28;20163;-68
2022/04/18 09:53:26;;;;;;;5.90;3.87;;;13.30;84.50;;;;;;5075042;28;20476;-69
2022/04/18 09:55:54;;;;;;;4.20;3.20;;;13.50;83.10;;;;;;5075710;28;20209;-68
2022/04/18 09:58:21;;;;;;;5.87;3.80;;;13.80;81.00;;;;;;5078167;28;20245;-66
2022/04/18 10:00:48;;;;;;;5.27;4.10;;;13.80;81.40;;;;;;5074993;28;20168;-68
2022/04/18 10:03:16;;;;;;;5.83;4.00;;;13.80;82.10;;;;;;5074710;28;20475;-68
2022/04/18 10:05:41;;;;;;;7.13;4.57;;;14.00;81.80;;;;;;5056723;28;20529;-69
2022/04/18 10:08:07;;;;;;;4.87;3.97;;;14.00;82.90;;;;;;5058544;28;20214;-69
2022/04/18 10:10:34;;;;;;;4.43;3.73;;;14.00;80.90;;;;;;5077750;28;20159;-69
2022/04/18 10:13:02;;;;;;;4.67;3.60;;;14.10;82.10;;;;;;5075808;28;20163;-68
2022/04/18 10:15:28;;;;;;;6.07;3.93;;;14.10;82.40;;;;;;5073822;28;20160;-70
2022/04/18 10:17:56;;;;;;;6.43;4.37;;;14.00;82.70;;;;;;5073968;28;20148;-69
2022/04/18 10:20:55;;;;;;;4.67;3.37;;;14.20;83.00;;;;;;5073538;28;20599;-70
2022/04/18 10:23:52;;;;;;;5.73;3.80;;;14.10;80.00;;;;;;5073344;28;20175;-70
2022/04/18 10:26:48;;;;;;;5.60;4.00;;;14.10;82.10;;;;;;5074147;28;20191;-70
2022/04/18 10:29:20;;;;;;;6.67;3.57;;;14.10;81.90;;;;;;5073783;28;20167;-68
2022/04/18 10:31:48;;;;;;;5.20;3.73;;;14.40;80.60;;;;;;5073595;28;20272;-69
2022/04/18 10:34:14;;;;;;;4.83;3.60;;;13.90;83.00;;;;;;5073457;28;20170;-69
2022/04/18 10:36:50;;;;;;;5.07;3.63;;;14.00;83.50;;;;;;5055748;28;20187;-66
2022/04/18 10:39:16;;;;;;;4.53;3.90;;;13.80;84.00;;;;;;5083231;28;20368;-72
2022/04/18 10:41:43;;;;;;;5.63;3.00;;;13.70;83.80;;;;;;5094075;28;20622;-69
2022/04/18 10:44:17;;;;;;;5.63;3.20;;;13.80;83.70;;;;;;5093705;28;20165;-70
2022/04/18 10:47:03;;;;;;;5.20;2.97;;;14.30;81.50;;;;;;5094381;28;20199;-69
2022/04/18 10:49:31;;;;;;;3.60;2.77;;;14.10;80.50;;;;;;5097010;28;20155;-69
2022/04/18 10:52:08;;;;;;;3.20;2.57;;;14.20;80.10;;;;;;5097897;28;20163;-68
2022/04/18 10:54:34;;;;;;;3.30;2.13;;;14.30;78.50;;;;;;5096543;28;20173;-68
2022/04/18 10:57:02;;;;;;;2.93;2.10;;;14.00;75.80;;;;;;5098168;28;20201;-69
2022/04/18 10:59:36;;;;;;;3.47;2.40;;;14.30;74.60;;;;;;5096494;28;20570;-68
2022/04/18 11:02:04;;;;;;;3.40;2.10;;;14.70;74.00;;;;;;5097178;28;20169;-67
2022/04/18 11:04:39;;;;;;;5.70;4.07;;;14.50;71.90;;;;;;5098278;28;20214;-71
2022/04/18 11:07:06;;;;;;;12.63;8.37;;;14.90;76.90;;;;;;5097039;28;20202;-75
2022/04/18 11:09:37;;;;;;;53.87;31.17;;;15.80;76.90;;;;;;5098575;28;20253;-74
2022/04/18 11:12:17;;;;;;;8.53;6.43;;;16.10;73.50;;;;;;5097651;28;20163;-67
2022/04/18 11:14:53;;;;;;;3.50;2.30;;;15.30;70.70;;;;;;5097678;28;20167;-68
2022/04/18 11:17:37;;;;;;;3.40;2.07;;;14.70;70.70;;;;;;5097444;28;20159;-67
2022/04/18 11:20:27;;;;;;;3.00;2.00;;;15.10;69.70;;;;;;5097828;28;20190;-67
2022/04/18 11:23:18;;;;;;;3.87;1.97;;;15.10;68.40;;;;;;5100092;28;20537;-67
2022/04/18 11:26:01;;;;;;;2.43;1.87;;;14.60;69.00;;;;;;5100842;28;20202;-68
2022/04/18 11:28:35;;;;;;;2.07;1.73;;;15.20;68.60;;;;;;5101716;28;20529;-68
2022/04/18 11:31:11;;;;;;;5.03;3.23;;;14.90;67.40;;;;;;5102430;28;20170;-67
2022/04/18 11:33:42;;;;;;;2.93;2.30;;;14.70;68.80;;;;;;5103247;28;20218;-69
2022/04/18 11:36:09;;;;;;;3.03;1.80;;;14.70;68.60;;;;;;5099930;28;20178;-68
2022/04/18 11:38:35;;;;;;;3.10;1.90;;;15.10;67.60;;;;;;5087374;28;20675;-68
2022/04/18 11:41:09;;;;;;;3.53;1.97;;;15.40;65.70;;;;;;5076178;28;20196;-66
2022/04/18 11:43:34;;;;;;;1.80;1.50;;;15.20;64.50;;;;;;5076696;28;20196;-67
2022/04/18 11:46:08;;;;;;;3.60;2.00;;;14.70;65.30;;;;;;5075750;28;20234;-68
2022/04/18 11:48:34;;;;;;;2.67;1.80;;;14.50;66.80;;;;;;5076312;28;20175;-66
2022/04/18 11:51:00;;;;;;;1.67;1.57;;;15.00;67.90;;;;;;5058262;28;20236;-66
2022/04/18 11:53:35;;;;;;;1.70;1.60;;;15.20;66.20;;;;;;5075804;28;20631;-67
2022/04/18 11:56:05;;;;;;;2.33;1.60;;;15.10;65.90;;;;;;5076105;28;20167;-67
2022/04/18 11:58:40;;;;;;;2.37;2.00;;;14.90;65.40;;;;;;5076147;28;20171;-66
2022/04/18 12:07:07;;;;;;;9.40;4.43;;;15.20;72.00;;;;;;5088012;28;20205;-74
2022/04/18 12:09:26;;;;;;;10.33;6.07;;;15.90;66.40;;;;;;5082191;28;20587;-77
2022/04/18 12:11:52;;;;;;;16.60;5.07;;;16.40;62.90;;;;;;5059664;28;20171;-74
2022/04/18 12:14:18;;;;;;;10.50;5.53;;;16.70;60.50;;;;;;5076114;28;20596;-75
2022/04/18 12:16:44;;;;;;;8.70;4.40;;;16.30;60.70;;;;;;5058845;28;20210;-76
2022/04/18 12:19:15;;;;;;;4.18;2.50;;;16.10;61.90;;;;;;5077120;28;20270;-77
2022/04/18 12:21:42;;;;;;;5.95;3.55;;;16.60;59.40;;;;;;5076852;28;20205;-75
2022/04/18 12:24:08;;;;;;;8.70;5.53;;;16.80;58.60;;;;;;5076677;28;20629;-74
2022/04/18 12:26:34;;;;;;;5.45;2.83;;;17.10;58.80;;;;;;5077092;28;20661;-65
2022/04/18 12:29:08;;;;;;;10.18;2.95;;;16.70;55.10;;;;;;5076749;28;20189;-68
2022/04/18 12:31:41;;;;;;;3.57;1.80;;;15.60;56.20;;;;;;5075957;28;20209;-68
2022/04/18 12:34:06;;;;;;;4.83;2.23;;;15.40;58.30;;;;;;5076092;28;20514;-68
2022/04/18 12:36:35;;;;;;;3.50;1.63;;;15.50;59.30;;;;;;5075430;28;20266;-68
2022/04/18 12:39:03;;;;;;;1.67;1.30;;;15.50;58.00;;;;;;5075497;28;20584;-66
2022/04/18 12:41:33;;;;;;;2.27;1.60;;;15.30;58.30;;;;;;5075831;28;20202;-69
2022/04/18 12:43:59;;;;;;;2.43;1.50;;;15.60;57.60;;;;;;5075631;28;20175;-69
2022/04/18 12:46:32;;;;;;;9.47;2.20;;;16.20;56.70;;;;;;5075537;28;20547;-70
2022/04/18 12:49:04;;;;;;;2.33;1.57;;;16.00;55.50;;;;;;5078074;28;20202;-69
2022/04/18 12:51:42;;;;;;;1.83;1.33;;;16.10;54.20;;;;;;5075611;28;20156;-69
2022/04/18 12:54:21;;;;;;;3.25;1.65;;;16.70;53.50;;;;;;5075142;28;20164;-67
2022/04/18 12:56:48;;;;;;;6.37;3.80;;;16.50;52.90;;;;;;5075965;28;20189;-67
2022/04/18 12:59:28;;;;;;;29.50;15.03;;;16.20;53.80;;;;;;5077495;28;20167;-69
2022/04/18 13:02:10;;;;;;;3.70;2.50;;;16.30;52.90;;;;;;5077254;28;20160;-68
2022/04/18 13:04:36;;;;;;;2.70;1.83;;;16.50;52.30;;;;;;5079392;28;20168;-68
2022/04/18 13:07:06;;;;;;;2.73;1.63;;;16.70;53.00;;;;;;5064282;28;20234;-71
2022/04/18 13:09:31;;;;;;;4.53;1.70;;;17.00;53.60;;;;;;5075560;28;20596;-69
2022/04/18 13:12:05;;;;;;;2.47;2.13;;;17.10;52.80;;;;;;5056642;28;20186;-70